createdAt,value
2018-06-15T00:01:40.759Z,59.80
2018-06-15T00:04:10.446Z,59.80
2018-06-15T00:06:40.054Z,59.80
2018-06-15T00:09:09.956Z,59.80
2018-06-15T00:11:39.621Z,59.80
2018-06-15T00:14:09.244Z,59.80
2018-06-15T00:16:38.807Z,59.90
2018-06-15T00:19:08.444Z,60.50
2018-06-15T00:21:38.171Z,59.90
2018-06-15T00:24:07.831Z,59.80
2018-06-15T00:26:37.435Z,59.90
2018-06-15T00:29:07.054Z,59.80
2018-06-15T00:31:36.644Z,59.80
2018-06-15T00:34:06.388Z,59.90
2018-06-15T00:36:36.073Z,59.90
2018-06-15T00:39:08.630Z,59.90
2018-06-15T00:41:38.280Z,59.90
2018-06-15T00:44:07.922Z,60.00
2018-06-15T00:46:37.550Z,60.00
2018-06-15T00:49:07.700Z,60.00
2018-06-15T00:51:37.811Z,60.00
2018-06-15T00:54:07.781Z,60.00
2018-06-15T00:56:46.993Z,60.00
2018-06-15T00:59:16.597Z,60.00
2018-06-15T01:01:46.222Z,60.00
2018-06-15T01:04:15.884Z,60.10
2018-06-15T01:06:45.523Z,60.10
2018-06-15T01:09:15.136Z,60.10
2018-06-15T01:11:44.698Z,60.10
2018-06-15T01:14:14.476Z,60.10
2018-06-15T01:16:44.323Z,60.10
2018-06-15T01:19:13.887Z,60.80
2018-06-15T01:21:43.503Z,60.10
2018-06-15T01:24:13.145Z,60.10
2018-06-15T01:26:42.912Z,60.10
2018-06-15T01:29:12.604Z,60.10
2018-06-15T01:31:42.330Z,60.00
2018-06-15T01:34:11.943Z,60.00
2018-06-15T01:36:41.643Z,60.00
2018-06-15T01:39:12.110Z,60.00
2018-06-15T01:41:41.826Z,60.00
2018-06-15T01:44:11.520Z,60.00
2018-06-15T01:46:41.114Z,60.00
2018-06-15T01:49:10.732Z,60.00
2018-06-15T01:54:15.586Z,60.00
2018-06-15T01:56:45.166Z,60.00
2018-06-15T01:59:14.767Z,59.80
2018-06-15T02:01:44.429Z,59.80
2018-06-15T02:04:14.026Z,59.80
2018-06-15T02:06:43.726Z,59.80
2018-06-15T02:09:13.336Z,59.80
2018-06-15T02:11:43.095Z,59.70
2018-06-15T02:14:12.753Z,59.70
2018-06-15T02:16:42.443Z,59.70
2018-06-15T02:19:12.152Z,59.70
2018-06-15T02:21:41.735Z,59.80
2018-06-15T02:24:11.391Z,59.80
2018-06-15T02:26:41.023Z,59.70
2018-06-15T02:29:10.721Z,59.70
2018-06-15T02:31:40.387Z,59.70
2018-06-15T02:34:10.012Z,59.70
2018-06-15T02:36:39.640Z,59.70
2018-06-15T02:39:10.869Z,59.70
2018-06-15T02:41:40.885Z,59.70
2018-06-15T02:44:10.483Z,59.70
2018-06-15T02:46:40.092Z,59.80
2018-06-15T02:49:09.711Z,59.80
2018-06-15T02:51:39.421Z,59.80
2018-06-15T02:54:09.106Z,59.80
2018-06-15T02:56:38.852Z,59.80
2018-06-15T02:59:08.549Z,59.90
2018-06-15T03:01:38.134Z,59.80
2018-06-15T03:04:07.818Z,59.90
2018-06-15T03:06:37.442Z,59.90
2018-06-15T03:09:07.896Z,59.80
2018-06-15T03:11:37.477Z,59.90
2018-06-15T03:14:07.147Z,59.90
2018-06-15T03:16:36.786Z,59.40
2018-06-15T03:19:06.495Z,59.90
2018-06-15T03:21:36.086Z,59.90
2018-06-15T03:24:05.776Z,59.90
2018-06-15T03:26:35.366Z,59.90
2018-06-15T03:29:05.042Z,59.90
2018-06-15T03:31:34.596Z,59.90
2018-06-15T03:34:04.231Z,59.90
2018-06-15T03:36:33.916Z,59.90
2018-06-15T03:39:03.812Z,60.00
2018-06-15T03:41:33.483Z,60.00
2018-06-15T03:44:03.088Z,60.00
2018-06-15T03:46:32.910Z,60.00
2018-06-15T03:49:02.518Z,60.80
2018-06-15T03:51:32.139Z,60.00
2018-06-15T03:54:02.140Z,60.00
2018-06-15T03:56:31.787Z,60.00
2018-06-15T03:59:01.433Z,60.00
2018-06-15T04:01:31.080Z,60.00
2018-06-15T04:04:00.700Z,60.00
2018-06-15T04:06:30.337Z,60.00
2018-06-15T04:08:59.950Z,60.00
2018-06-15T04:11:29.580Z,60.10
2018-06-15T04:13:59.231Z,60.10
2018-06-15T04:16:28.885Z,60.10
2018-06-15T04:18:58.551Z,60.10
2018-06-15T04:21:28.209Z,60.10
2018-06-15T04:23:57.930Z,60.20
2018-06-15T04:26:27.587Z,60.20
2018-06-15T04:28:57.248Z,60.10
2018-06-15T04:31:26.929Z,60.20
2018-06-15T04:33:57.429Z,59.70
2018-06-15T04:36:27.096Z,60.30
2018-06-15T04:38:56.765Z,60.30
2018-06-15T04:41:26.358Z,61.20
2018-06-15T04:43:56.032Z,60.40
2018-06-15T04:48:54.653Z,60.40
2018-06-15T04:51:24.223Z,60.40
2018-06-15T04:53:53.840Z,60.40
2018-06-15T04:56:23.572Z,60.50
2018-06-15T04:58:53.198Z,60.50
2018-06-15T05:01:22.802Z,60.50
2018-06-15T05:03:52.788Z,60.60
2018-06-15T05:06:22.464Z,60.60
2018-06-15T05:08:52.191Z,60.70
2018-06-15T05:11:21.815Z,60.70
2018-06-15T05:13:51.400Z,60.70
2018-06-15T05:16:21.068Z,60.70
2018-06-15T05:18:50.732Z,60.70
2018-06-15T05:21:20.358Z,60.70
2018-06-15T05:23:49.973Z,60.80
2018-06-15T05:26:19.542Z,60.70
2018-06-15T05:28:49.219Z,60.70
2018-06-15T05:31:18.881Z,60.80
2018-06-15T05:33:48.476Z,60.90
2018-06-15T05:36:18.050Z,60.80
2018-06-15T05:38:47.630Z,60.90
2018-06-15T05:41:17.295Z,60.90
2018-06-15T05:43:46.943Z,60.90
2018-06-15T05:46:16.554Z,60.90
2018-06-15T05:48:46.125Z,60.90
2018-06-15T05:51:15.811Z,60.90
2018-06-15T05:53:45.535Z,60.90
2018-06-15T05:56:15.165Z,61.00
2018-06-15T06:01:13.848Z,61.00
2018-06-15T06:03:43.518Z,61.00
2018-06-15T06:06:13.148Z,61.30
2018-06-15T06:08:42.843Z,61.00
2018-06-15T06:11:12.573Z,61.00
2018-06-15T06:13:42.382Z,60.90
2018-06-15T06:16:12.110Z,61.00
2018-06-15T06:18:42.020Z,60.90
2018-06-15T06:21:11.680Z,61.70
2018-06-15T06:23:41.612Z,60.50
2018-06-15T06:26:11.526Z,61.00
2018-06-15T06:28:41.512Z,61.00
2018-06-15T06:31:11.196Z,61.00
2018-06-15T06:33:41.309Z,60.90
2018-06-15T06:36:10.964Z,61.00
2018-06-15T06:38:41.264Z,61.10
2018-06-15T06:41:10.956Z,61.10
2018-06-15T06:43:40.958Z,61.00
2018-06-15T06:46:10.617Z,61.10
2018-06-15T06:48:40.490Z,61.00
2018-06-15T06:51:10.170Z,61.00
2018-06-15T06:53:40.154Z,60.90
2018-06-15T06:56:09.844Z,60.90
2018-06-15T06:58:39.907Z,60.80
2018-06-15T07:01:09.631Z,61.60
2018-06-15T07:03:39.608Z,61.60
2018-06-15T07:06:09.352Z,61.00
2018-06-15T07:08:39.317Z,60.90
2018-06-15T07:11:09.210Z,60.80
2018-06-15T07:13:39.214Z,60.90
2018-06-15T07:16:08.853Z,60.90
2018-06-15T07:18:38.709Z,60.90
2018-06-15T07:21:08.463Z,60.80
2018-06-15T07:23:38.303Z,60.80
2018-06-15T07:26:08.195Z,60.80
2018-06-15T07:28:38.103Z,60.50
2018-06-15T07:31:07.843Z,60.40
2018-06-15T07:33:37.968Z,60.20
2018-06-15T07:36:07.574Z,59.80
2018-06-15T07:38:37.459Z,59.50
2018-06-15T07:41:07.224Z,59.20
2018-06-15T07:43:36.891Z,58.80
2018-06-15T07:46:06.551Z,58.40
2018-06-15T07:48:36.169Z,58.10
2018-06-15T07:51:05.891Z,57.90
2018-06-15T07:53:35.506Z,57.50
2018-06-15T07:56:05.295Z,57.80
2018-06-15T07:58:34.956Z,57.10
2018-06-15T08:01:04.576Z,56.80
2018-06-15T08:03:40.885Z,56.60
2018-06-15T08:06:10.531Z,56.40
2018-06-15T08:08:40.113Z,56.20
2018-06-15T08:11:09.714Z,55.80
2018-06-15T08:13:39.382Z,55.50
2018-06-15T08:16:09.046Z,55.30
2018-06-15T08:18:38.723Z,55.00
2018-06-15T08:21:08.455Z,54.90
2018-06-15T08:23:38.171Z,54.80
2018-06-15T08:26:07.819Z,54.70
2018-06-15T08:28:37.393Z,54.60
2018-06-15T08:31:07.053Z,54.60
2018-06-15T08:33:36.700Z,54.40
2018-06-15T08:36:06.333Z,54.30
2018-06-15T08:38:36.020Z,54.20
2018-06-15T08:41:05.698Z,54.00
2018-06-15T08:43:35.354Z,53.90
2018-06-15T08:46:05.039Z,53.70
2018-06-15T08:48:34.750Z,53.20
2018-06-15T08:51:04.438Z,52.80
2018-06-15T08:53:34.315Z,52.40
2018-06-15T08:56:03.995Z,52.00
2018-06-15T08:58:33.801Z,51.70
2018-06-15T09:01:03.506Z,51.50
2018-06-15T09:03:33.106Z,51.20
2018-06-15T09:06:02.667Z,51.00
2018-06-15T09:08:32.316Z,50.90
2018-06-15T09:11:01.928Z,50.70
2018-06-15T09:13:31.550Z,50.50
2018-06-15T09:16:01.323Z,50.80
2018-06-15T09:18:31.031Z,50.10
2018-06-15T09:21:00.719Z,49.90
2018-06-15T09:23:30.417Z,49.60
2018-06-15T09:25:59.994Z,49.20
2018-06-15T09:28:29.637Z,49.00
2018-06-15T09:30:59.299Z,48.80
2018-06-15T09:33:28.921Z,48.60
2018-06-15T09:35:58.635Z,48.60
2018-06-15T09:38:28.333Z,48.50
2018-06-15T09:40:57.922Z,48.40
2018-06-15T09:43:27.569Z,48.30
2018-06-15T09:45:57.149Z,48.20
2018-06-15T09:48:26.805Z,48.20
2018-06-15T09:50:56.482Z,48.10
2018-06-15T09:53:26.102Z,48.10
2018-06-15T09:55:57.179Z,48.10
2018-06-15T09:58:27.249Z,48.20
2018-06-15T10:01:01.960Z,48.10
2018-06-15T10:03:31.990Z,48.10
2018-06-15T10:06:01.920Z,48.00
2018-06-15T10:08:31.518Z,47.90
2018-06-15T10:11:01.217Z,47.70
2018-06-15T10:13:30.891Z,47.60
2018-06-15T10:16:00.455Z,47.40
2018-06-15T10:18:30.092Z,47.40
2018-06-15T10:20:59.800Z,47.40
2018-06-15T10:23:29.391Z,47.50
2018-06-15T10:25:58.964Z,47.40
2018-06-15T10:28:28.600Z,47.50
2018-06-15T10:30:58.273Z,47.50
2018-06-15T10:33:27.904Z,47.50
2018-06-15T10:35:57.505Z,47.50
2018-06-15T10:38:27.301Z,47.50
2018-06-15T10:40:56.993Z,47.60
2018-06-15T10:43:26.676Z,47.60
2018-06-15T10:45:56.291Z,47.60
2018-06-15T10:48:25.900Z,47.60
2018-06-15T10:50:55.792Z,47.60
2018-06-15T10:53:25.461Z,47.40
2018-06-15T10:58:24.011Z,47.10
2018-06-15T11:00:53.599Z,46.90
2018-06-15T11:03:23.176Z,46.50
2018-06-15T11:05:52.818Z,46.30
2018-06-15T11:08:22.761Z,46.10
2018-06-15T11:10:52.397Z,45.80
2018-06-15T11:13:22.007Z,45.60
2018-06-15T11:15:51.645Z,45.40
2018-06-15T11:18:21.223Z,45.30
2018-06-15T11:20:50.869Z,45.20
2018-06-15T11:23:20.521Z,45.10
2018-06-15T11:25:50.217Z,45.00
2018-06-15T11:28:19.920Z,44.80
2018-06-15T11:30:49.547Z,44.50
2018-06-15T11:33:19.263Z,44.40
2018-06-15T11:35:48.917Z,44.30
2018-06-15T11:38:18.480Z,43.80
2018-06-15T11:40:48.250Z,43.40
2018-06-15T11:43:17.837Z,43.20
2018-06-15T11:45:47.457Z,43.00
2018-06-15T11:48:17.147Z,42.80
2018-06-15T11:50:46.845Z,42.80
2018-06-15T11:53:16.494Z,42.80
2018-06-15T11:55:46.123Z,42.60
2018-06-15T11:58:15.795Z,42.60
2018-06-15T12:00:45.442Z,42.60
2018-06-15T12:03:14.994Z,42.60
2018-06-15T12:05:44.590Z,42.60
2018-06-15T12:08:14.216Z,42.50
2018-06-15T12:10:43.835Z,42.30
2018-06-15T12:13:13.519Z,42.10
2018-06-15T12:15:43.151Z,41.90
2018-06-15T12:18:12.899Z,41.60
2018-06-15T12:20:42.533Z,41.40
2018-06-15T12:23:12.135Z,41.30
2018-06-15T12:25:41.774Z,41.30
2018-06-15T12:28:11.398Z,41.40
2018-06-15T12:30:41.016Z,41.20
2018-06-15T12:33:10.631Z,41.20
2018-06-15T12:35:40.287Z,41.10
2018-06-15T12:38:09.911Z,41.10
2018-06-15T12:40:42.417Z,40.90
2018-06-15T12:43:12.135Z,40.70
2018-06-15T12:45:41.772Z,38.90
2018-06-15T12:48:11.402Z,39.10
2018-06-15T12:50:41.041Z,39.20
2018-06-15T12:53:10.770Z,39.20
2018-06-15T12:55:40.381Z,39.20
2018-06-15T12:58:10.049Z,39.20
2018-06-15T13:00:39.698Z,39.20
2018-06-15T13:03:09.349Z,39.20
2018-06-15T13:05:38.982Z,39.00
2018-06-15T13:08:08.578Z,38.80
2018-06-15T13:10:38.238Z,38.60
2018-06-15T13:13:07.848Z,38.60
2018-06-15T13:15:37.503Z,38.70
2018-06-15T13:18:07.112Z,38.70
2018-06-15T13:20:39.795Z,38.80
2018-06-15T13:23:12.589Z,38.80
2018-06-15T13:25:46.420Z,38.80
2018-06-15T13:28:19.244Z,38.80
2018-06-15T13:30:52.191Z,38.70
2018-06-15T13:33:24.528Z,38.70
2018-06-15T13:35:57.459Z,38.50
2018-06-15T13:38:30.626Z,38.40
2018-06-15T13:41:04.403Z,38.40
2018-06-15T13:43:37.651Z,38.30
2018-06-15T13:46:10.131Z,38.20
2018-06-15T13:48:43.996Z,38.10
2018-06-15T13:51:16.287Z,38.00
2018-06-15T13:53:49.172Z,38.10
2018-06-15T13:56:21.696Z,38.10
2018-06-15T13:58:55.088Z,38.20
2018-06-15T14:01:27.847Z,38.30
2018-06-15T14:03:59.131Z,38.40
2018-06-15T14:06:30.185Z,38.50
2018-06-15T14:09:01.204Z,38.60
2018-06-15T14:11:32.172Z,38.50
2018-06-15T14:14:03.303Z,38.50
2018-06-15T14:16:35.378Z,38.50
2018-06-15T14:19:06.474Z,38.50
2018-06-15T14:21:38.157Z,38.70
2018-06-15T14:24:09.031Z,38.70
2018-06-15T14:26:39.853Z,38.80
2018-06-15T14:29:10.774Z,39.00
2018-06-15T14:31:41.693Z,39.10
2018-06-15T14:34:13.521Z,39.20
2018-06-15T14:36:44.675Z,39.40
2018-06-15T14:39:15.554Z,39.50
2018-06-15T14:41:46.464Z,39.50
2018-06-15T14:44:16.150Z,39.40
2018-06-15T14:46:45.841Z,39.30
2018-06-15T14:49:15.561Z,39.20
2018-06-15T14:51:45.249Z,39.20
2018-06-15T14:54:14.967Z,39.60
2018-06-15T14:56:44.596Z,39.00
2018-06-15T14:59:14.333Z,38.90
2018-06-15T15:01:43.935Z,39.00
2018-06-15T15:04:13.602Z,39.10
2018-06-15T15:06:43.279Z,39.10
2018-06-15T15:09:12.916Z,39.10
2018-06-15T15:11:42.506Z,39.20
2018-06-15T15:14:12.246Z,39.20
2018-06-15T15:16:41.945Z,39.30
2018-06-15T15:19:11.632Z,39.30
2018-06-15T15:21:41.178Z,39.20
2018-06-15T15:24:10.814Z,39.20
2018-06-15T15:26:40.473Z,39.20
2018-06-15T15:29:10.129Z,39.30
2018-06-15T15:31:39.758Z,39.30
2018-06-15T15:34:09.421Z,39.30
2018-06-15T15:36:39.031Z,39.30
2018-06-15T15:39:10.520Z,39.40
2018-06-15T15:41:40.173Z,39.30
2018-06-15T15:44:10.105Z,39.40
2018-06-15T15:46:39.788Z,39.50
2018-06-15T15:49:09.430Z,39.50
2018-06-15T15:51:39.049Z,39.60
2018-06-15T15:54:08.734Z,39.50
2018-06-15T15:56:38.445Z,39.50
2018-06-15T15:59:08.109Z,39.50
2018-06-15T16:01:37.715Z,39.40
2018-06-15T16:04:07.379Z,39.30
2018-06-15T16:06:37.035Z,39.30
2018-06-15T16:09:07.970Z,39.40
2018-06-15T16:11:37.611Z,39.40
2018-06-15T16:14:07.508Z,39.80
2018-06-15T16:16:37.180Z,39.20
2018-06-15T16:19:06.796Z,39.10
2018-06-15T16:21:36.400Z,39.00
2018-06-15T16:24:06.192Z,38.90
2018-06-15T16:26:35.903Z,38.90
2018-06-15T16:29:05.595Z,39.50
2018-06-15T16:31:35.124Z,38.90
2018-06-15T16:34:04.725Z,38.80
2018-06-15T16:36:34.339Z,38.80
2018-06-15T16:39:04.745Z,38.80
2018-06-15T16:41:37.776Z,38.70
2018-06-15T16:44:07.547Z,38.80
2018-06-15T16:46:45.137Z,38.90
2018-06-15T16:49:14.917Z,39.00
2018-06-15T16:51:45.235Z,39.10
2018-06-15T16:54:14.891Z,39.20
2018-06-15T16:56:44.580Z,39.20
2018-06-15T16:59:14.341Z,39.40
2018-06-15T17:01:43.907Z,39.40
2018-06-15T17:04:13.571Z,39.50
2018-06-15T17:06:43.274Z,39.60
2018-06-15T17:09:12.944Z,39.70
2018-06-15T17:11:42.582Z,39.80
2018-06-15T17:14:12.248Z,39.80
2018-06-15T17:16:41.980Z,39.90
2018-06-15T17:19:11.671Z,39.90
2018-06-15T17:21:41.323Z,39.80
2018-06-15T17:24:10.975Z,39.90
2018-06-15T17:26:40.665Z,39.90
2018-06-15T17:29:10.323Z,40.00
2018-06-15T17:31:39.917Z,40.00
2018-06-15T17:34:09.573Z,40.00
2018-06-15T17:36:46.153Z,40.00
2018-06-15T17:39:15.895Z,40.10
2018-06-15T17:41:45.921Z,40.00
2018-06-15T17:44:15.581Z,40.00
2018-06-15T17:46:45.234Z,40.00
2018-06-15T17:49:14.844Z,40.10
2018-06-15T17:51:44.454Z,40.10
2018-06-15T17:54:14.081Z,40.10
2018-06-15T17:56:43.665Z,40.10
2018-06-15T17:59:13.264Z,40.10
2018-06-15T18:01:43.035Z,40.80
2018-06-15T18:04:12.736Z,40.20
2018-06-15T18:06:42.420Z,40.30
2018-06-15T18:09:12.233Z,40.30
2018-06-15T18:11:41.852Z,40.40
2018-06-15T18:14:11.476Z,40.40
2018-06-15T18:16:41.156Z,40.50
2018-06-15T18:19:10.776Z,40.60
2018-06-15T18:21:40.396Z,40.70
2018-06-15T18:24:09.962Z,40.80
2018-06-15T18:26:39.507Z,40.90
2018-06-15T18:29:09.196Z,41.00
2018-06-15T18:31:38.939Z,41.10
2018-06-15T18:34:08.603Z,41.10
2018-06-15T18:36:38.278Z,41.20
2018-06-15T18:39:12.409Z,41.20
2018-06-15T18:41:42.186Z,41.20
2018-06-15T18:44:11.850Z,41.20
2018-06-15T18:46:41.505Z,41.40
2018-06-15T18:49:11.193Z,41.70
2018-06-15T18:51:40.932Z,41.90
2018-06-15T18:54:10.682Z,42.30
2018-06-15T18:56:40.326Z,42.50
2018-06-15T18:59:10.018Z,42.70
2018-06-15T19:01:40.082Z,42.90
2018-06-15T19:04:09.730Z,42.90
2018-06-15T19:06:39.498Z,43.00
2018-06-15T19:09:11.720Z,43.00
2018-06-15T19:11:42.037Z,43.10
2018-06-15T19:14:12.185Z,43.30
2018-06-15T19:16:42.432Z,43.50
2018-06-15T19:19:12.407Z,43.70
2018-06-15T19:21:42.358Z,43.80
2018-06-15T19:24:12.331Z,43.90
2018-06-15T19:26:42.597Z,44.10
2018-06-15T19:29:13.094Z,44.20
2018-06-15T19:31:43.167Z,44.20
2018-06-15T19:34:13.478Z,44.30
2018-06-15T19:36:43.721Z,44.40
2018-06-15T19:39:13.980Z,44.60
2018-06-15T19:41:44.252Z,44.90
2018-06-15T19:44:14.448Z,45.00
2018-06-15T19:46:44.747Z,45.20
2018-06-15T19:49:15.127Z,45.40
2018-06-15T19:51:45.247Z,45.50
2018-06-15T19:54:15.871Z,45.60
2018-06-15T19:56:45.884Z,45.70
2018-06-15T19:59:15.991Z,45.60
2018-06-15T20:01:46.249Z,45.80
2018-06-15T20:04:16.637Z,45.90
2018-06-15T20:06:46.974Z,46.00
2018-06-15T20:09:17.177Z,46.00
2018-06-15T20:11:47.500Z,46.10
2018-06-15T20:14:17.835Z,46.00
2018-06-15T20:16:48.197Z,45.90
2018-06-15T20:19:18.493Z,45.80
2018-06-15T20:21:48.727Z,45.70
2018-06-15T20:24:18.886Z,45.70
2018-06-15T20:26:48.872Z,45.70
2018-06-15T20:29:19.046Z,45.70
2018-06-15T20:31:49.226Z,45.70
2018-06-15T20:34:19.269Z,45.70
2018-06-15T20:36:49.434Z,45.80
2018-06-15T20:39:19.534Z,45.80
2018-06-15T20:41:49.650Z,45.90
2018-06-15T20:44:19.723Z,46.00
2018-06-15T20:46:50.077Z,46.10
2018-06-15T20:49:20.375Z,46.20
2018-06-15T20:51:50.685Z,46.30
2018-06-15T20:54:20.990Z,46.50
2018-06-15T20:56:51.034Z,46.70
2018-06-15T20:59:20.885Z,46.90
2018-06-15T21:01:50.882Z,46.90
2018-06-15T21:04:20.740Z,47.10
2018-06-15T21:06:50.805Z,47.30
2018-06-15T21:09:20.662Z,47.40
2018-06-15T21:11:50.632Z,47.40
2018-06-15T21:14:20.543Z,47.50
2018-06-15T21:16:50.225Z,47.50
2018-06-15T21:19:19.869Z,47.60
2018-06-15T21:21:49.594Z,47.50
2018-06-15T21:24:19.325Z,47.60
2018-06-15T21:26:48.923Z,47.70
2018-06-15T21:29:18.509Z,47.80
2018-06-15T21:31:48.104Z,47.90
2018-06-15T21:34:17.726Z,48.00
2018-06-15T21:39:16.324Z,48.10
2018-06-15T21:41:45.910Z,48.10
2018-06-15T21:44:15.648Z,48.20
2018-06-15T21:46:45.276Z,48.20
2018-06-15T21:49:14.873Z,48.20
2018-06-15T21:51:44.574Z,48.20
2018-06-15T21:54:14.206Z,48.20
2018-06-15T21:56:43.778Z,48.30
2018-06-15T21:59:13.415Z,48.30
2018-06-15T22:01:43.109Z,48.30
2018-06-15T22:04:12.731Z,48.30
2018-06-15T22:06:42.315Z,48.40
2018-06-15T22:09:11.971Z,48.30
2018-06-15T22:11:41.669Z,48.40
2018-06-15T22:14:11.529Z,48.50
2018-06-15T22:16:46.273Z,48.50
2018-06-15T22:19:15.978Z,48.60
2018-06-15T22:21:45.641Z,48.60
2018-06-15T22:24:15.434Z,48.70
2018-06-15T22:26:45.336Z,48.70
2018-06-15T22:29:15.013Z,48.70
2018-06-15T22:31:44.730Z,48.70
2018-06-15T22:34:14.308Z,48.70
2018-06-15T22:36:43.891Z,48.70
2018-06-15T22:39:15.525Z,48.80
2018-06-15T22:41:45.185Z,48.70
2018-06-15T22:44:14.887Z,48.80
2018-06-15T22:46:44.534Z,48.80
2018-06-15T22:49:14.198Z,48.90
2018-06-15T22:51:43.752Z,49.00
2018-06-15T22:54:13.286Z,49.00
2018-06-15T22:56:42.872Z,49.00
2018-06-15T22:59:12.433Z,49.10
2018-06-15T23:01:42.108Z,49.10
2018-06-15T23:04:11.729Z,49.10
2018-06-15T23:06:41.457Z,49.10
2018-06-15T23:09:12.385Z,49.10
2018-06-15T23:11:42.586Z,49.10
2018-06-15T23:14:12.480Z,49.10
2018-06-15T23:16:42.178Z,49.10
2018-06-15T23:19:11.834Z,49.20
2018-06-15T23:21:41.452Z,49.20
2018-06-15T23:24:11.024Z,49.20
2018-06-15T23:26:40.645Z,49.10
2018-06-15T23:29:10.281Z,49.20
2018-06-15T23:31:39.927Z,49.20
2018-06-15T23:34:09.602Z,49.30
2018-06-15T23:36:39.124Z,49.30
2018-06-15T23:39:09.849Z,49.30
2018-06-15T23:41:39.593Z,49.30
2018-06-15T23:44:09.302Z,49.40
2018-06-15T23:46:38.932Z,49.40
2018-06-15T23:49:08.562Z,49.50
2018-06-15T23:51:38.134Z,49.40
2018-06-15T23:54:07.730Z,49.50
2018-06-15T23:56:37.321Z,49.50
2018-06-15T23:59:07.075Z,49.50
